Data for 11/01/2018

Time Sea-Level Adjusted Pressure Absolute Pressure Temperature Relative Humidity Dew Point   
(mb) (inHg) (mb) (inHg) (C) (F) (%) (C) (F)
00:05 1017 30.03 846 24.98 4.6 40.4 66 -1.2 29.8
00:10 1017 30.03 846 24.98 4.8 40.6 64 -1.5 29.4
00:15 1017 30.03 846 24.98 5 41.1 62 -1.6 29.1
00:20 1017 30.03 846 24.98 5.2 41.4 62 -1.4 29.5
00:25 1017 30.03 846 24.98 5.2 41.4 62 -1.5 29.3
00:30 1017 30.03 846 24.98 5.3 41.5 61 -1.7 28.9
00:35 1017 30.03 846 24.98 5.4 41.7 60 -1.7 29
00:40 1017 30.03 846 24.98 5.5 41.8 60 -1.6 29.2
00:45 1017 30.03 846 24.98 5.5 41.9 58 -2.1 28.2
00:50 1017 30.03 846 24.98 5.6 42.1 59 -1.7 28.9
00:55 1017 30.03 846 24.98 5.6 42 60 -1.6 29.1
01:00 1017 30.03 846 24.98 5.5 41.9 59 -1.8 28.7
01:05 1017 30.03 846 24.98 5.6 42.1 58 -2 28.4
01:10 1017 30.03 846 24.98 5.6 42.1 59 -1.8 28.8
01:15 1017 30.03 846 24.98 5.6 42.1 59 -1.8 28.8
01:20 1017 30.03 846 24.98 5.6 42 60 -1.6 29.2
01:25 1017 30.03 846 24.98 5.5 41.9 62 -1.3 29.7
01:30 1017 30.03 846 24.98 5.4 41.6 63 -1.1 30
01:35 1017 30.03 846 24.98 5.2 41.4 64 -1 30.2
01:40 1017 30.03 846 24.98 5.1 41.1 63 -1.3 29.7
01:45 1017 30.03 846 24.98 5.1 41.1 63 -1.4 29.5
01:50 1017 30.03 846 24.98 5.1 41.1 65 -1 30.1
01:55 1017 30.03 846 24.98 5 41 65 -1 30.1
02:00 1017 30.03 846 24.98 4.9 40.8 66 -1 30.2
02:05 1017 30.03 846 24.98 4.6 40.3 66 -1.3 29.7
02:10 1017 30.03 846 24.98 4.5 40.1 66 -1.3 29.7
02:15 1017 30.03 846 24.98 4.6 40.4 66 -1.2 29.8
02:20 1017 30.03 846 24.98 4.8 40.6 65 -1.3 29.6
02:25 1017 30.03 846 24.98 4.8 40.7 65 -1.2 29.8
02:30 1017 30.03 846 24.98 4.9 40.7 64 -1.3 29.6
02:35 1017 30.03 846 24.98 4.9 40.8 64 -1.3 29.6
02:40 1017 30.03 846 24.98 4.9 40.8 64 -1.3 29.6
02:45 1017 30.03 846 24.98 4.9 40.8 64 -1.4 29.5
02:50 1017 30.03 846 24.98 5 40.9 64 -1.2 29.8
02:55 1017 30.03 846 24.98 4.9 40.8 66 -0.9 30.3
03:00 1017 30.03 846 24.98 4.7 40.5 65 -1.2 29.8
03:05 1017 30.03 846 24.98 4.7 40.4 64 -1.5 29.3
03:10 1017 30.03 846 24.98 4.8 40.6 63 -1.6 29.1
03:15 1017 30.03 846 24.98 4.8 40.7 63 -1.6 29
03:20 1017 30.03 846 24.98 4.8 40.7 63 -1.5 29.2
03:25 1017 30.03 846 24.98 4.8 40.6 63 -1.6 29.2
03:30 1017 30.03 846 24.98 4.8 40.6 63 -1.8 28.8
03:35 1017 30.03 846 24.98 4.9 40.8 63 -1.6 29.1
03:40 1017 30.03 846 24.98 4.8 40.7 63 -1.6 29.2
03:45 1017 30.03 846 24.98 4.8 40.6 65 -1.3 29.7
03:50 1017 30.03 846 24.98 4.7 40.4 65 -1.3 29.6
03:55 1017 30.03 846 24.98 4.6 40.2 64 -1.6 29.2
04:00 1017 30.03 846 24.98 4.5 40.2 64 -1.6 29
04:05 1017 30.03 846 24.98 4.5 40.1 64 -1.7 29
04:10 1017 30.03 846 24.98 4.6 40.2 64 -1.7 29
04:15 1017 30.03 846 24.98 4.6 40.3 65 -1.5 29.3
04:20 1017 30.03 846 24.98 4.6 40.2 66 -1.3 29.7
04:25 1017 30.03 846 24.98 4.5 40.1 66 -1.4 29.6
04:30 1017 30.03 846 24.98 4.4 40 67 -1.2 29.9
04:35 1017 30.03 846 24.98 4.4 40 66 -1.4 29.4
04:40 1017 30.03 846 24.98 4.5 40.1 67 -1 30.2
04:45 1017 30.03 846 24.98 4.5 40.1 66 -1.2 29.8
04:50 1017 30.03 846 24.98 4.6 40.2 63 -1.8 28.7
04:55 1017 30.03 846 24.98 4.6 40.4 65 -1.3 29.6
05:00 1017 30.03 846 24.98 4.5 40.1 67 -1 30.1
05:05 1017 30.03 846 24.98 4.3 39.7 68 -1.2 29.9
05:10 1017 30.03 847 25.01 4.5 40 66 -1.4 29.4
05:15 1018 30.06 847 25.01 4.6 40.2 65 -1.3 29.6
05:20 1017 30.03 847 25.01 4.6 40.3 65 -1.5 29.3
05:25 1017 30.03 847 25.01 4.7 40.4 66 -1.2 29.9
05:30 1017 30.03 847 25.01 4.7 40.4 63 -1.8 28.8
05:35 1017 30.03 847 25.01 4.8 40.6 63 -1.7 28.9
05:40 1017 30.03 846 24.98 4.9 40.8 64 -1.4 29.5
05:45 1017 30.03 847 25.01 4.8 40.6 64 -1.5 29.3
05:50 1017 30.03 847 25.01 4.7 40.4 63 -1.7 28.9
05:55 1017 30.03 847 25.01 4.4 40 63 -1.9 28.6
06:00 1017 30.03 847 25.01 4.5 40.1 64 -1.8 28.8
06:05 1017 30.03 847 25.01 4.7 40.4 64 -1.6 29
06:10 1018 30.06 847 25.01 4.7 40.5 65 -1.3 29.6
06:15 1018 30.06 847 25.01 4.8 40.7 65 -1.2 29.8
06:20 1018 30.06 847 25.01 4.9 40.7 64 -1.3 29.6
06:25 1018 30.06 847 25.01 4.9 40.7 65 -1.1 30.1
06:30 1018 30.06 847 25.01 4.8 40.6 65 -1.3 29.6
06:35 1018 30.06 847 25.01 4.8 40.7 65 -1.1 30
06:40 1018 30.06 847 25.01 4.8 40.7 65 -1.2 29.8
06:45 1018 30.06 847 25.01 4.9 40.8 66 -0.9 30.3
06:50 1018 30.06 847 25.01 4.9 40.9 65 -1 30.1
06:55 1018 30.06 847 25.01 5 41 67 -0.6 30.9
07:00 1018 30.06 847 25.01 4.9 40.8 70 -0.2 31.7
07:05 1018 30.06 847 25.01 4.7 40.5 71 -0.1 31.8
07:10 1018 30.06 847 25.01 4.6 40.3 72 0.1 32.1
07:15 1018 30.06 847 25.01 4.5 40.1 73 -0 32
07:20 1018 30.06 847 25.01 4.5 40.1 73 0.1 32.2
07:25 1018 30.06 847 25.01 4.5 40 73 0.1 32.1
07:30 1018 30.06 847 25.01 4.3 39.8 73 -0 32
07:35 1018 30.06 848 25.04 4.3 39.7 74 0 32
07:40 1018 30.06 848 25.04 4.2 39.6 74 -0 31.9
07:45 1019 30.09 848 25.04 4.2 39.5 74 -0.1 31.8
07:50 1019 30.09 848 25.04 4.2 39.6 74 -0.1 31.9
07:55 1019 30.09 848 25.04 4.2 39.5 73 -0.2 31.6
08:00 1019 30.09 848 25.04 4.2 39.5 73 -0.3 31.5
08:05 1019 30.09 848 25.04 4.3 39.7 72 -0.3 31.4
08:10 1018 30.06 848 25.04 4.4 39.9 71 -0.3 31.4
08:15 1019 30.09 848 25.04 4.5 40.2 70 -0.4 31.3
08:20 1019 30.09 848 25.04 4.7 40.5 70 -0.3 31.4
08:25 1019 30.09 848 25.04 4.9 40.9 70 -0.1 31.8
08:30 1019 30.09 848 25.04 5.1 41.2 70 0 32
08:35 1019 30.09 848 25.04 5.2 41.3 70 0.2 32.4
08:40 1019 30.09 848 25.04 5.1 41.1 70 0.1 32.2
08:45 1019 30.09 848 25.04 5.1 41.3 69 -0 31.9
08:50 1019 30.09 848 25.04 5.2 41.4 69 -0 32
08:55 1019 30.09 848 25.04 5.3 41.5 69 0.1 32.1
09:00 1019 30.09 848 25.04 5.2 41.4 69 0.1 32.1
09:05 1019 30.09 848 25.04 5 41 68 -0.3 31.4
09:10 1019 30.09 848 25.04 4.9 40.8 69 -0.4 31.4
09:15 1019 30.09 848 25.04 5.1 41.2 68 -0.3 31.4
09:20 1019 30.09 848 25.04 5.4 41.8 67 -0.2 31.6
09:25 1019 30.09 848 25.04 5.6 42 67 -0.1 31.8
09:30 1019 30.09 848 25.04 5.6 42 68 0.1 32.2
09:35 1019 30.09 848 25.04 5.5 42 68 0.1 32.1
09:40 1019 30.09 848 25.04 5.6 42 67 -0 31.9
09:45 1019 30.09 848 25.04 5.7 42.2 65 -0.3 31.5
09:50 1019 30.09 848 25.04 5.8 42.4 66 -0 31.9
09:55 1019 30.09 848 25.04 5.9 42.6 66 -0 31.9
10:00 1019 30.09 848 25.04 5.9 42.7 64 -0.4 31.4
10:05 1019 30.09 848 25.04 5.9 42.7 64 -0.4 31.3
10:10 1019 30.09 849 25.07 6 42.8 64 -0.2 31.6
10:15 1019 30.09 849 25.07 6.1 43 64 -0.1 31.8
10:20 1020 30.12 849 25.07 6.2 43.1 65 0.1 32.2
10:25 1020 30.12 849 25.07 6.2 43.1 64 -0 31.9
10:30 1020 30.12 849 25.07 6.2 43.2 63 -0.2 31.6
10:35 1020 30.12 849 25.07 6.2 43.2 64 -0.1 31.8
10:40 1020 30.12 849 25.07 6.2 43.1 64 -0 32
10:45 1020 30.12 849 25.07 6.2 43.2 65 0.2 32.4
10:50 1020 30.12 849 25.07 6.3 43.3 66 0.4 32.7
10:55 1020 30.12 849 25.07 6.3 43.3 66 0.3 32.6
11:00 1020 30.12 849 25.07 6.5 43.8 65 0.4 32.7
11:05 1020 30.12 849 25.07 6.8 44.3 63 0.4 32.7
11:10 1020 30.12 849 25.07 7.2 44.9 62 0.3 32.6
11:15 1020 30.12 849 25.07 7.5 45.6 61 0.6 33
11:20 1020 30.12 849 25.07 7.9 46.3 61 0.9 33.6
11:25 1019 30.09 849 25.07 7.7 45.9 62 0.9 33.7
11:30 1019 30.09 849 25.07 7.5 45.6 62 0.8 33.4
11:35 1019 30.09 849 25.07 7.5 45.6 63 1 33.8
11:40 1020 30.12 849 25.07 7.5 45.5 63 0.9 33.6
11:45 1019 30.09 849 25.07 7.5 45.5 63 0.8 33.5
11:50 1019 30.09 849 25.07 7.5 45.4 65 1.3 34.4
11:55 1019 30.09 849 25.07 7.4 45.2 62 0.6 33.1
12:00 1019 30.09 849 25.07 7.2 45 63 0.7 33.3
12:05 1019 30.09 849 25.07 7.2 44.9 66 1.3 34.3
12:10 1019 30.09 849 25.07 7.3 45.1 69 2 35.6
12:15 1019 30.09 849 25.07 7.2 45 70 2.1 35.8
12:20 1019 30.09 849 25.07 7.1 44.7 68 1.5 34.7
12:25 1019 30.09 849 25.07 6.9 44.4 68 1.5 34.7
12:30 1019 30.09 848 25.04 6.7 44 71 1.7 35.1
12:35 1019 30.09 849 25.07 6.6 43.9 72 2 35.6
12:40 1019 30.09 848 25.04 6.6 44 70 1.5 34.7
12:45 1019 30.09 848 25.04 6.7 44 71 1.8 35.2
12:50 1019 30.09 848 25.04 6.8 44.2 69 1.6 34.8
12:55 1019 30.09 848 25.04 6.9 44.4 69 1.6 34.9
13:00 1019 30.09 848 25.04 6.9 44.5 68 1.5 34.7
13:05 1019 30.09 848 25.04 6.9 44.4 70 1.7 35.1
13:10 1019 30.09 848 25.04 7 44.5 68 1.5 34.7
13:15 1019 30.09 848 25.04 7 44.6 68 1.6 34.9
13:20 1019 30.09 848 25.04 7.1 44.8 69 1.8 35.3
13:25 1019 30.09 848 25.04 7.2 45 66 1.4 34.5
13:30 1019 30.09 848 25.04 7.3 45.1 66 1.4 34.6
13:35 1019 30.09 848 25.04 7.3 45.1 67 1.6 34.9
13:40 1019 30.09 848 25.04 7.3 45.1 67 1.7 35
13:45 1019 30.09 849 25.07 7.2 45 68 1.7 35
13:50 1019 30.09 849 25.07 7.2 45 67 1.5 34.7
13:55 1019 30.09 849 25.07 7.3 45.1 69 2 35.6
14:00 1019 30.09 849 25.07 7.1 44.7 73 2.6 36.7
14:05 1019 30.09 849 25.07 6.6 43.9 76 2.6 36.7
14:10 1019 30.09 849 25.07 6.6 43.8 74 2.4 36.3
14:15 1019 30.09 849 25.07 6.7 44 73 2.2 36
14:20 1019 30.09 849 25.07 6.7 44.1 73 2.3 36.2
14:25 1019 30.09 849 25.07 6.6 43.8 74 2.2 35.9
14:30 1019 30.09 849 25.07 6.4 43.6 73 2.1 35.7
14:35 1019 30.09 849 25.07 6.5 43.8 74 2.2 35.9
14:40 1020 30.12 849 25.07 6.6 44 72 1.9 35.4
14:45 1020 30.12 849 25.07 6.8 44.2 71 1.9 35.4
14:50 1020 30.12 849 25.07 6.9 44.4 68 1.5 34.7
14:55 1020 30.12 849 25.07 6.8 44.2 70 1.7 35.1
15:00 1019 30.09 849 25.07 6.8 44.3 70 1.7 35.1
15:05 1019 30.09 849 25.07 6.7 44 71 1.7 35.1
15:10 1019 30.09 849 25.07 6.6 43.9 69 1.4 34.5
15:15 1019 30.09 849 25.07 6.6 43.9 71 1.7 35
15:20 1019 30.09 849 25.07 6.7 44 70 1.7 35
15:25 1019 30.09 849 25.07 6.7 44.1 70 1.7 35.1
15:30 1020 30.12 849 25.07 6.7 44.1 69 1.5 34.7
15:35 1020 30.12 849 25.07 6.7 44 69 1.5 34.7
15:40 1020 30.12 849 25.07 6.7 44 70 1.6 34.9
15:45 1020 30.12 849 25.07 6.7 44.1 70 1.6 34.9
15:50 1019 30.09 849 25.07 6.7 44.1 72 2 35.6
15:55 1019 30.09 849 25.07 6.6 43.9 72 2 35.5
16:00 1020 30.12 849 25.07 6.5 43.8 73 2.1 35.8
16:05 1020 30.12 849 25.07 6.6 43.8 74 2.2 36
16:10 1020 30.12 849 25.07 6.5 43.7 73 2.1 35.7
16:15 1020 30.12 849 25.07 6.4 43.5 73 1.9 35.3
16:20 1020 30.12 849 25.07 6.5 43.6 74 2.1 35.8
16:25 1020 30.12 849 25.07 6.5 43.8 73 2 35.6
16:30 1020 30.12 849 25.07 6.7 44 73 2.2 36
16:35 1020 30.12 849 25.07 6.7 44.1 74 2.4 36.3
16:40 1020 30.12 849 25.07 6.7 44 73 2.2 35.9
16:45 1020 30.12 849 25.07 6.6 43.9 71 1.8 35.3
16:50 1020 30.12 849 25.07 6.5 43.8 75 2.5 36.5
16:55 1020 30.12 849 25.07 6.5 43.6 74 2.2 35.9
17:00 1020 30.12 849 25.07 6.4 43.5 75 2.3 36.2
17:05 1020 30.12 849 25.07 6.3 43.3 77 2.5 36.5
17:10 1020 30.12 849 25.07 6.3 43.3 80 3.1 37.6
17:15 1020 30.12 849 25.07 6.1 42.9 80 2.9 37.3
17:20 1020 30.12 849 25.07 5.9 42.6 83 3.2 37.8
17:25 1020 30.12 849 25.07 5.7 42.2 83 3.1 37.5
17:30 1020 30.12 849 25.07 5.6 42.1 83 2.9 37.1
17:35 1020 30.12 849 25.07 5.6 42.2 78 2.2 35.9
17:40 1019 30.09 849 25.07 5.8 42.5 79 2.5 36.4
17:45 1019 30.09 849 25.07 5.6 42.1 83 3.1 37.5
17:50 1019 30.09 849 25.07 5.4 41.6 85 3 37.5
17:55 1019 30.09 849 25.07 5.2 41.4 85 2.9 37.3
18:00 1019 30.09 848 25.04 5.2 41.4 84 2.7 36.9
18:05 1019 30.09 848 25.04 5.4 41.7 81 2.4 36.3
18:10 1019 30.09 848 25.04 5.5 41.9 82 2.7 36.8
18:15 1019 30.09 848 25.04 5.4 41.8 83 2.7 36.8
18:20 1019 30.09 848 25.04 5.4 41.7 84 2.9 37.1
18:25 1019 30.09 848 25.04 5.3 41.5 86 3 37.5
18:30 1019 30.09 848 25.04 5.2 41.3 86 3 37.5
18:35 1019 30.09 848 25.04 5.1 41.2 86 2.9 37.2
18:40 1019 30.09 848 25.04 5.1 41.2 86 2.9 37.3
18:45 1019 30.09 848 25.04 5.1 41.3 85 2.9 37.2
18:50 1019 30.09 848 25.04 5.2 41.3 86 3 37.4
18:55 1019 30.09 848 25.04 5.3 41.6 86 3.2 37.7
19:00 1019 30.09 848 25.04 5.3 41.5 86 3.2 37.7
19:05 1019 30.09 848 25.04 5.2 41.3 86 3.1 37.6
19:10 1019 30.09 848 25.04 5.2 41.3 87 3.1 37.6
19:15 1019 30.09 848 25.04 5.1 41.2 87 3.1 37.7
19:20 1019 30.09 848 25.04 4.9 40.8 88 3.1 37.6
19:25 1019 30.09 848 25.04 4.9 40.7 88 3.1 37.6
19:30 1019 30.09 848 25.04 4.8 40.7 88 3 37.5
19:35 1019 30.09 848 25.04 4.8 40.6 89 3.1 37.5
19:40 1019 30.09 848 25.04 4.8 40.7 89 3.1 37.6
19:45 1019 30.09 848 25.04 4.8 40.6 89 3.1 37.6
19:50 1019 30.09 848 25.04 4.7 40.5 89 3.1 37.5
19:55 1019 30.09 848 25.04 4.7 40.5 89 3.1 37.5
20:00 1019 30.09 848 25.04 4.7 40.4 89 3.1 37.6
20:05 1019 30.09 848 25.04 4.6 40.4 90 3.1 37.6
20:10 1019 30.09 848 25.04 4.6 40.2 90 3.1 37.5
20:15 1019 30.09 848 25.04 4.5 40.2 90 3 37.5
20:20 1019 30.09 848 25.04 4.5 40.2 90 3.1 37.5
20:25 1019 30.09 848 25.04 4.5 40.2 90 3.1 37.5
20:30 1019 30.09 848 25.04 4.5 40.2 90 3 37.5
20:35 1019 30.09 848 25.04 4.6 40.2 90 3.1 37.5
20:40 1019 30.09 848 25.04 4.5 40.2 90 3.1 37.5
20:45 1019 30.09 848 25.04 4.6 40.2 90 3.1 37.5
20:50 1019 30.09 848 25.04 4.6 40.3 90 3.1 37.7
20:55 1018 30.06 848 25.04 4.6 40.3 90 3.1 37.7
21:00 1018 30.06 848 25.04 4.6 40.3 90 3.1 37.7
21:05 1018 30.06 848 25.04 4.6 40.2 90 3.1 37.6
21:10 1018 30.06 848 25.04 4.6 40.2 90 3.1 37.6
21:15 1018 30.06 847 25.01 4.6 40.2 90 3.1 37.6
21:20 1018 30.06 847 25.01 4.6 40.2 91 3.2 37.7
21:25 1018 30.06 847 25.01 4.6 40.2 91 3.1 37.7
21:30 1018 30.06 847 25.01 4.6 40.3 91 3.2 37.7
21:35 1018 30.06 847 25.01 4.6 40.3 91 3.2 37.7
21:40 1018 30.06 847 25.01 4.6 40.3 91 3.2 37.8
21:45 1018 30.06 847 25.01 4.6 40.3 91 3.2 37.8
21:50 1018 30.06 847 25.01 4.6 40.3 91 3.3 37.9
21:55 1018 30.06 847 25.01 4.6 40.3 91 3.3 37.9
22:00 1018 30.06 847 25.01 4.6 40.3 91 3.3 37.9
22:05 1018 30.06 847 25.01 4.6 40.3 91 3.3 37.9
22:10 1018 30.06 847 25.01 4.6 40.3 91 3.3 37.9
22:15 1018 30.06 847 25.01 4.7 40.4 91 3.3 38
22:20 1018 30.06 847 25.01 4.7 40.4 91 3.3 38
22:25 1018 30.06 847 25.01 4.7 40.5 91 3.4 38.1
22:30 1018 30.06 847 25.01 4.7 40.5 91 3.4 38
22:35 1018 30.06 847 25.01 4.8 40.7 91 3.4 38.2
22:40 1018 30.06 847 25.01 4.9 40.8 91 3.4 38.2
22:45 1018 30.06 847 25.01 4.9 40.7 91 3.5 38.2
22:50 1018 30.06 847 25.01 4.8 40.7 91 3.4 38.1
22:55 1018 30.06 847 25.01 4.8 40.7 91 3.4 38.2
23:00 1018 30.06 847 25.01 4.8 40.7 91 3.4 38.2
23:05 1018 30.06 847 25.01 4.9 40.8 91 3.5 38.3
23:10 1017 30.03 847 25.01 4.9 40.8 91 3.5 38.3
23:15 1017 30.03 847 25.01 4.9 40.9 90 3.5 38.3
23:20 1017 30.03 847 25.01 5 40.9 91 3.5 38.4
23:25 1017 30.03 847 25.01 5 41 91 3.6 38.4
23:30 1017 30.03 847 25.01 5 41.1 91 3.6 38.5
23:35 1017 30.03 847 25.01 5.1 41.1 91 3.6 38.5
23:40 1017 30.03 847 25.01 5 41.1 90 3.6 38.5
23:45 1017 30.03 847 25.01 5 41 91 3.6 38.4
23:50 1017 30.03 847 25.01 5 41 91 3.6 38.5
23:55 1017 30.03 847 25.01 5.1 41.1 90 3.6 38.5
24:00 1017 30.03 847 25.01 5.1 41.1 91 3.7 38.6